Time;durP1;ratioP1;P1;durP2;ratioP2;P2;SDS_P1;SDS_P2;PMS_P1;PMS_P2;Temp;Humidity;BMP_temperature;BMP_pressure;BME280_temperature;BME280_humidity;BME280_pressure;Samples;Min_cycle;Max_cycle;Signal;HPM_P1;HPM_P2
2021/04/26 00:02:29;;;;;;;9.40;4.75;;;;;;;2.64;60.15;101076.97;1691635;83;21346;-65
2021/04/26 00:05:02;;;;;;;7.03;3.92;;;;;;;2.63;60.32;101067.53;1693163;83;21335;-65
2021/04/26 00:07:35;;;;;;;;;;;;;;;2.63;60.39;101071.84;1693626;83;21171;-65
2021/04/26 00:10:10;;;;;;;14.18;6.30;;;;;;;2.63;60.54;101074.44;1694841;83;20172;-65
2021/04/26 00:12:44;;;;;;;13.90;6.42;;;;;;;2.63;60.68;101077.02;1696044;83;21359;-63
2021/04/26 00:15:25;;;;;;;12.47;6.00;;;;;;;2.65;60.77;101081.70;1687248;83;21331;-63
2021/04/26 00:17:59;;;;;;;11.73;5.80;;;;;;;2.66;60.80;101080.33;1696465;83;21292;-65
2021/04/26 00:20:32;;;;;;;17.53;6.67;;;;;;;2.67;60.88;101082.47;1688817;83;21237;-64
2021/04/26 00:23:06;;;;;;;14.10;6.33;;;;;;;2.68;60.90;101079.80;1686635;83;21759;-64
2021/04/26 00:25:41;;;;;;;14.78;6.55;;;;;;;2.67;60.90;101080.70;1692338;83;21198;-64
2021/04/26 00:28:14;;;;;;;16.57;6.27;;;;;;;2.66;60.98;101080.33;1689879;83;21200;-64
2021/04/26 00:30:47;;;;;;;13.03;4.90;;;;;;;2.63;61.17;101080.45;1686436;83;21786;-64
2021/04/26 00:33:20;;;;;;;13.18;5.17;;;;;;;2.60;61.39;101080.57;1699479;83;21914;-64
2021/04/26 00:35:53;;;;;;;;;;;;;;;2.59;61.53;101078.91;1693948;83;21271;-65
2021/04/26 00:38:28;;;;;;;14.30;4.05;;;;;;;2.57;61.59;101074.72;1687558;84;20292;-65
2021/04/26 00:41:00;;;;;;;8.00;4.10;;;;;;;2.51;61.69;101071.93;1683759;83;21783;-65
2021/04/26 00:43:34;;;;;;;;;;;;;;;2.49;61.70;101072.89;1685388;83;21754;-65
2021/04/26 00:46:06;;;;;;;13.43;4.53;;;;;;;2.46;61.88;101071.76;1678222;83;20176;-64
2021/04/26 00:48:41;;;;;;;7.50;4.17;;;;;;;2.43;62.03;101074.02;1701203;83;21840;-64
2021/04/26 00:51:14;;;;;;;11.80;4.75;;;;;;;2.42;62.17;101068.89;1693184;83;21337;-63
2021/04/26 00:53:49;;;;;;;8.45;4.15;;;;;;;2.41;62.29;101071.92;1694125;83;21293;-65
2021/04/26 00:56:22;;;;;;;6.90;3.15;;;;;;;2.39;62.37;101075.03;1681732;83;21278;-64
2021/04/26 00:58:55;;;;;;;8.65;3.70;;;;;;;2.37;62.40;101069.53;1674944;84;21228;-63
2021/04/26 01:01:29;;;;;;;10.25;4.20;;;;;;;2.33;62.43;101061.09;1691419;84;21295;-64
2021/04/26 01:04:04;;;;;;;12.88;5.10;;;;;;;2.32;62.52;101059.40;1694058;83;21299;-63
2021/04/26 01:06:37;;;;;;;9.60;4.47;;;;;;;2.31;62.54;101064.20;1692709;83;21751;-63
2021/04/26 01:09:12;;;;;;;11.40;4.05;;;;;;;2.28;62.48;101058.30;1690365;83;21775;-63
2021/04/26 01:11:57;;;;;;;6.05;3.52;;;;;;;2.22;62.50;101051.64;1692266;83;21218;-63
2021/04/26 01:14:55;;;;;;;7.65;3.55;;;;;;;2.20;62.49;101056.03;1649498;85;21760;-63
2021/04/26 01:17:30;;;;;;;10.00;4.03;;;;;;;2.18;62.48;101055.27;1658515;85;21189;-65
2021/04/26 01:20:20;;;;;;;7.25;3.60;;;;;;;2.15;62.32;101058.44;1666801;85;21193;-64
2021/04/26 01:23:37;;;;;;;7.00;3.37;;;;;;;2.13;62.42;101056.34;1639957;86;21293;-64
2021/04/26 01:26:12;;;;;;;8.28;3.30;;;;;;;2.10;62.54;101056.05;1624172;86;21792;-64
2021/04/26 01:29:05;;;;;;;10.82;3.95;;;;;;;2.10;62.55;101053.91;1637341;86;21850;-64
2021/04/26 01:32:11;;;;;;;7.25;2.98;;;;;;;2.07;62.52;101050.16;1643783;86;21301;-64
2021/04/26 01:34:45;;;;;;;5.80;3.20;;;;;;;2.04;62.52;101051.13;1693796;83;21264;-63
2021/04/26 01:37:19;;;;;;;7.25;3.37;;;;;;;2.00;62.34;101053.00;1674534;84;21328;-63
2021/04/26 01:39:52;;;;;;;8.28;3.58;;;;;;;1.97;62.33;101050.54;1684239;83;21337;-63
2021/04/26 01:42:25;;;;;;;8.98;3.77;;;;;;;1.97;62.36;101047.11;1692971;84;21854;-64
2021/04/26 01:45:00;;;;;;;8.20;4.10;;;;;;;1.96;62.38;101041.55;1683106;84;21799;-63
2021/04/26 01:47:33;;;;;;;11.18;3.37;;;;;;;1.93;62.43;101039.95;1660531;84;21426;-63
2021/04/26 01:50:09;;;;;;;11.15;3.98;;;;;;;1.93;62.56;101039.11;1693578;83;21181;-63
2021/04/26 01:52:42;;;;;;;8.38;3.50;;;;;;;1.90;62.49;101041.81;1688730;83;21326;-63
2021/04/26 01:55:15;;;;;;;10.45;4.03;;;;;;;1.86;62.45;101043.66;1689661;83;21280;-64
2021/04/26 01:57:49;;;;;;;9.55;4.00;;;;;;;1.86;62.47;101048.01;1685095;84;21859;-64
2021/04/26 02:00:26;;;;;;;;;;;;;;;1.81;62.55;101040.45;1685304;83;21257;-64
2021/04/26 02:03:04;;;;;;;9.33;4.20;;;;;;;1.77;62.71;101035.45;1677213;84;20208;-64
2021/04/26 02:05:40;;;;;;;9.35;4.53;;;;;;;1.70;62.88;101036.59;1695766;83;21218;-64
2021/04/26 02:08:16;;;;;;;10.65;5.15;;;;;;;1.67;63.20;101036.74;1687223;83;21234;-64
2021/04/26 02:10:51;;;;;;;11.40;4.42;;;;;;;1.66;63.41;101034.61;1682104;83;21886;-64
2021/04/26 02:13:26;;;;;;;11.95;5.20;;;;;;;1.65;63.58;101034.67;1683495;83;21162;-65
2021/04/26 02:16:01;;;;;;;12.63;4.95;;;;;;;1.63;63.51;101031.28;1701300;83;21288;-64
2021/04/26 02:18:35;;;;;;;11.33;4.75;;;;;;;1.61;63.56;101024.91;1692495;83;21814;-64
2021/04/26 02:21:09;;;;;;;14.58;4.17;;;;;;;1.60;63.68;101027.09;1685789;83;21328;-65
2021/04/26 02:23:42;;;;;;;13.10;4.58;;;;;;;1.61;63.92;101027.48;1690517;83;21886;-64
2021/04/26 02:26:15;;;;;;;10.78;4.03;;;;;;;1.66;63.86;101033.31;1697602;83;21299;-64
2021/04/26 02:28:48;;;;;;;8.50;3.73;;;;;;;1.69;63.96;101030.62;1694183;83;21833;-64
2021/04/26 02:31:26;;;;;;;7.87;3.92;;;;;;;1.75;64.03;101032.94;1676532;83;21289;-64
2021/04/26 02:34:26;;;;;;;9.63;4.90;;;;;;;1.82;64.15;101034.81;1692764;83;21364;-64
2021/04/26 02:37:09;;;;;;;11.50;3.83;;;;;;;1.89;64.08;101029.34;1678546;84;21336;-64
2021/04/26 02:39:48;;;;;;;9.68;4.72;;;;;;;1.99;63.51;101034.97;1674370;83;21254;-63
2021/04/26 02:42:24;;;;;;;12.63;5.15;;;;;;;2.08;63.08;101030.71;1695442;83;21257;-64
2021/04/26 02:44:57;;;;;;;11.33;4.92;;;;;;;2.16;62.66;101023.49;1689318;83;21351;-64
2021/04/26 02:47:31;;;;;;;20.72;6.40;;;;;;;2.21;62.50;101016.39;1690225;83;21299;-64
2021/04/26 02:50:07;;;;;;;10.63;5.65;;;;;;;2.27;62.32;101012.24;1691257;83;21263;-64
2021/04/26 02:52:41;;;;;;;11.93;5.70;;;;;;;2.33;62.20;101011.16;1693954;83;21217;-67
2021/04/26 02:55:15;;;;;;;14.93;5.72;;;;;;;2.40;61.99;101017.73;1695187;83;22048;-68
2021/04/26 02:57:50;;;;;;;14.40;6.42;;;;;;;2.48;61.85;101023.42;1681073;83;21295;-67
2021/04/26 03:00:24;;;;;;;15.60;6.20;;;;;;;2.57;61.61;101025.60;1693139;83;21325;-67
2021/04/26 03:03:04;;;;;;;16.00;7.05;;;;;;;2.66;61.52;101018.28;1676457;83;21303;-67
2021/04/26 03:05:37;;;;;;;;;;;;;;;2.78;61.35;101016.05;1692450;83;21822;-68
2021/04/26 03:08:11;;;;;;;20.90;7.58;;;;;;;2.88;61.01;101009.56;1700145;83;20171;-68
2021/04/26 03:10:47;;;;;;;14.80;5.30;;;;;;;2.95;60.67;101016.14;1691574;83;21176;-67
2021/04/26 03:13:20;;;;;;;16.07;5.78;;;;;;;3.05;60.09;101017.41;1672006;84;21850;-68
2021/04/26 03:15:53;;;;;;;23.62;6.28;;;;;;;3.17;59.52;101014.25;1686823;83;21283;-69
2021/04/26 03:18:28;;;;;;;22.67;9.18;;;;;;;3.27;59.02;101015.03;1701784;83;21814;-64
2021/04/26 03:21:04;;;;;;;24.98;11.08;;;;;;;3.38;58.62;101017.98;1698041;83;21296;-67
2021/04/26 03:23:37;;;;;;;22.73;11.25;;;;;;;3.50;58.66;101016.55;1699344;83;21331;-65
2021/04/26 03:26:10;;;;;;;18.20;8.40;;;;;;;3.67;58.12;101019.18;1683432;83;21232;-65
2021/04/26 03:28:44;;;;;;;14.63;7.03;;;;;;;3.89;57.80;101012.50;1694740;83;21288;-65
2021/04/26 03:31:17;;;;;;;15.30;5.40;;;;;;;4.18;57.41;101016.23;1690955;83;21227;-65
2021/04/26 03:34:01;;;;;;;9.90;5.35;;;;;;;4.46;57.05;101016.05;1694944;83;21257;-65
2021/04/26 03:36:34;;;;;;;9.13;4.95;;;;;;;4.73;56.80;101013.75;1697917;83;21823;-65
2021/04/26 03:39:09;;;;;;;10.85;5.40;;;;;;;4.95;56.44;101018.64;1695002;83;21846;-65
2021/04/26 03:41:43;;;;;;;11.83;5.85;;;;;;;5.14;55.99;101011.09;1685821;83;21232;-66
2021/04/26 03:44:19;;;;;;;9.68;6.22;;;;;;;5.48;55.58;101014.42;1687430;83;21283;-65
2021/04/26 03:47:10;;;;;;;12.63;5.53;;;;;;;5.80;54.91;101009.57;1680257;84;21359;-66
2021/04/26 03:49:48;;;;;;;11.50;4.72;;;;;;;6.16;53.98;101013.98;1665859;84;21225;-68
2021/04/26 03:52:38;;;;;;;12.70;5.60;;;;;;;6.63;52.86;101008.55;1693883;83;21201;-66
2021/04/26 03:55:16;;;;;;;10.53;6.08;;;;;;;7.24;51.37;101011.63;1673204;83;21299;-66
2021/04/26 03:57:48;;;;;;;12.10;6.92;;;;;;;7.68;49.88;101004.06;1697650;83;21311;-65
2021/04/26 04:00:23;;;;;;;17.45;6.25;;;;;;;8.12;48.67;101004.56;1685882;83;21228;-67
2021/04/26 04:02:58;;;;;;;15.63;6.70;;;;;;;8.69;47.21;101003.25;1698046;83;21294;-67
2021/04/26 04:05:31;;;;;;;13.20;6.47;;;;;;;9.38;45.71;101000.56;1686012;83;21845;-67
2021/04/26 04:08:12;;;;;;;14.63;6.28;;;;;;;10.07;44.46;100991.46;1693189;83;21195;-67
2021/04/26 04:11:03;;;;;;;14.98;6.87;;;;;;;10.72;42.76;100995.60;1668550;85;21178;-66
2021/04/26 04:13:37;;;;;;;10.10;5.53;;;;;;;11.30;41.35;100991.86;1675739;83;21299;-65
2021/04/26 04:16:10;;;;;;;12.33;5.12;;;;;;;11.83;40.21;100986.70;1694904;83;22444;-66
2021/04/26 04:18:43;;;;;;;11.20;5.03;;;;;;;12.28;38.98;100991.22;1693001;83;21871;-66
2021/04/26 04:21:16;;;;;;;10.08;4.58;;;;;;;12.58;38.40;100997.36;1688140;83;21342;-66
2021/04/26 04:23:49;;;;;;;10.72;5.42;;;;;;;12.92;37.48;100991.83;1696527;83;21355;-67
2021/04/26 04:26:23;;;;;;;9.23;4.78;;;;;;;13.55;36.54;100986.17;1672238;84;21348;-67
2021/04/26 04:28:58;;;;;;;9.28;4.95;;;;;;;14.29;34.99;100984.59;1674537;84;21814;-69
2021/04/26 04:31:48;;;;;;;9.23;4.87;;;;;;;15.08;33.90;100985.85;1691392;82;21315;-66
2021/04/26 04:34:23;;;;;;;13.18;4.67;;;;;;;15.88;32.93;100983.21;1682776;84;21288;-67
2021/04/26 04:37:14;;;;;;;7.67;4.33;;;;;;;16.45;32.03;100980.51;1689627;83;21320;-65
2021/04/26 04:40:06;;;;;;;8.30;4.72;;;;;;;17.00;31.19;100981.47;1673661;83;21346;-68
2021/04/26 04:42:44;;;;;;;11.85;5.33;;;;;;;17.43;30.25;100980.73;1688737;83;21249;-68
2021/04/26 04:45:19;;;;;;;8.55;4.65;;;;;;;17.80;29.62;100984.31;1685836;83;21738;-68
2021/04/26 04:48:12;;;;;;;18.82;4.62;;;;;;;18.17;28.96;100981.97;1681587;83;21285;-67
2021/04/26 04:51:03;;;;;;;8.00;4.53;;;;;;;18.68;28.02;100978.58;1693616;83;21267;-66
2021/04/26 04:53:50;;;;;;;12.88;5.95;;;;;;;19.18;27.48;100976.37;1690797;83;21224;-68
2021/04/26 04:56:24;;;;;;;8.63;4.70;;;;;;;19.64;26.48;100971.97;1653128;84;21367;-67
2021/04/26 04:58:57;;;;;;;7.10;4.25;;;;;;;19.94;26.14;100965.74;1667913;83;21719;-64
2021/04/26 05:01:31;;;;;;;7.58;4.15;;;;;;;20.04;25.52;100967.66;1657318;83;21894;-65
2021/04/26 05:04:22;;;;;;;8.85;4.65;;;;;;;20.10;25.30;100964.29;1670681;84;21346;-66
2021/04/26 05:07:13;;;;;;;12.63;5.33;;;;;;;20.01;25.50;100961.36;1682045;82;21278;-68
2021/04/26 05:10:04;;;;;;;6.75;4.10;;;;;;;19.69;25.73;100965.63;1676167;83;21252;-70
2021/04/26 05:12:55;;;;;;;12.47;4.55;;;;;;;19.37;24.92;100960.53;1661211;83;21315;-72
2021/04/26 05:15:38;;;;;;;14.60;4.85;;;;;;;19.24;25.01;100965.57;1684544;84;21379;-65
2021/04/26 05:18:12;;;;;;;13.10;4.60;;;;;;;19.20;25.38;100951.00;1667105;83;21504;-67
2021/04/26 05:20:45;;;;;;;6.53;4.03;;;;;;;19.38;25.54;100951.57;1679820;83;21261;-69
2021/04/26 05:23:19;;;;;;;8.40;4.50;;;;;;;19.69;25.22;100956.33;1675314;83;21323;-66
2021/04/26 05:25:54;;;;;;;7.22;4.20;;;;;;;20.08;24.71;100956.17;1667979;83;21365;-66
2021/04/26 05:28:28;;;;;;;8.15;4.30;;;;;;;20.57;24.01;100957.34;1681066;82;21442;-67
2021/04/26 05:31:02;;;;;;;8.13;4.65;;;;;;;21.16;23.57;100947.46;1680128;83;21350;-68
2021/04/26 05:33:36;;;;;;;13.08;5.00;;;;;;;21.78;22.90;100951.67;1673488;83;21261;-72
2021/04/26 05:36:38;;;;;;;10.82;4.35;;;;;;;22.50;22.12;100944.73;1680589;83;21264;-68
2021/04/26 05:39:14;;;;;;;9.38;4.55;;;;;;;23.33;21.42;100937.30;1676699;82;21349;-67
2021/04/26 05:41:49;;;;;;;4.95;3.27;;;;;;;24.23;20.66;100935.95;1680154;82;21284;-74
2021/04/26 05:44:21;;;;;;;;;;;;;;;24.88;19.62;100931.79;1653632;84;21413;-72
2021/04/26 05:46:56;;;;;;;10.23;3.98;;;;;;;25.46;19.04;100922.33;1651113;84;20274;-74
2021/04/26 05:49:30;;;;;;;9.00;3.92;;;;;;;25.80;18.69;100923.17;1661336;85;21386;-75
2021/04/26 05:52:03;;;;;;;6.17;3.40;;;;;;;26.17;18.02;100918.75;1648395;85;21379;-75
2021/04/26 05:54:36;;;;;;;8.70;3.55;;;;;;;26.57;17.72;100918.11;1679833;82;21367;-75
2021/04/26 05:57:10;;;;;;;3.87;2.65;;;;;;;27.01;17.44;100919.63;1685329;83;21326;-69
2021/04/26 05:59:43;;;;;;;7.67;3.20;;;;;;;27.33;16.62;100914.33;1680505;82;21373;-68
2021/04/26 06:02:16;;;;;;;4.37;2.40;;;;;;;27.60;16.62;100907.23;1687348;83;21236;-69
2021/04/26 06:04:48;;;;;;;;;;;;;;;28.01;15.95;100904.50;1682229;82;22291;-73
2021/04/26 06:07:21;;;;;;;7.10;2.45;;;;;;;28.23;15.12;100897.44;1680817;83;20279;-69
2021/04/26 06:09:55;;;;;;;5.35;2.20;;;;;;;28.15;14.95;100892.43;1676430;83;21321;-70
2021/04/26 06:12:28;;;;;;;5.08;1.70;;;;;;;28.32;14.30;100895.22;1682793;82;21407;-67
2021/04/26 06:15:01;;;;;;;2.95;1.62;;;;;;;28.47;13.78;100890.13;1675296;83;21241;-67
2021/04/26 06:17:34;;;;;;;;;;;;;;;28.67;13.51;100890.06;1681070;83;21168;-68
2021/04/26 06:20:08;;;;;;;1.60;1.15;;;;;;;29.15;13.34;100890.16;1679472;82;20389;-68
2021/04/26 06:22:45;;;;;;;7.80;1.75;;;;;;;29.65;12.45;100878.09;1693467;82;21696;-72
2021/04/26 06:25:22;;;;;;;1.27;1.07;;;;;;;29.93;11.73;100880.70;1672371;83;21187;-69
2021/04/26 06:27:56;;;;;;;3.80;1.80;;;;;;;29.86;10.91;100871.44;1675851;83;21225;-66
2021/04/26 06:30:31;;;;;;;1.27;1.10;;;;;;;29.93;10.75;100868.55;1672496;82;21335;-69
2021/04/26 06:33:04;;;;;;;0.93;0.90;;;;;;;29.87;10.69;100867.69;1681825;82;21344;-71
2021/04/26 06:35:37;;;;;;;1.27;0.88;;;;;;;29.79;10.65;100864.05;1694395;82;22073;-70
2021/04/26 06:38:10;;;;;;;2.12;1.25;;;;;;;29.49;10.55;100855.45;1673967;82;22608;-70
2021/04/26 06:40:45;;;;;;;33.42;3.20;;;;;;;28.94;10.83;100857.98;1692263;83;21340;-67
2021/04/26 06:43:19;;;;;;;5.12;1.22;;;;;;;28.29;10.96;100853.95;1677468;83;21165;-67
2021/04/26 06:45:51;;;;;;;1.20;1.10;;;;;;;27.97;11.42;100851.61;1675806;83;21304;-71
2021/04/26 06:48:24;;;;;;;;;;;;;;;27.92;11.50;100846.63;1678243;82;21285;-69
2021/04/26 06:50:57;;;;;;;3.00;1.17;;;;;;;28.03;10.99;100856.11;1692162;83;20277;-68
2021/04/26 06:53:30;;;;;;;5.20;1.30;;;;;;;27.58;11.59;100854.20;1674360;82;21326;-70
2021/04/26 06:56:04;;;;;;;3.50;1.17;;;;;;;27.52;11.59;100849.73;1672866;83;21248;-71
2021/04/26 06:58:37;;;;;;;2.37;1.37;;;;;;;27.80;11.68;100848.55;1673728;83;21820;-70
2021/04/26 07:01:10;;;;;;;6.35;2.00;;;;;;;28.04;11.43;100843.44;1679588;83;21245;-71
2021/04/26 07:03:46;;;;;;;3.92;2.22;;;;;;;28.22;10.81;100871.58;1672801;83;21777;-67
2021/04/26 07:06:19;;;;;;;3.40;1.30;;;;;;;27.84;10.61;100851.05;1620966;86;21993;-71
2021/04/26 07:08:53;;;;;;;1.20;0.90;;;;;;;27.34;10.70;100853.31;1688241;82;21247;-70
2021/04/26 07:11:26;;;;;;;1.82;1.25;;;;;;;27.12;10.79;100841.45;1677434;83;21808;-73
2021/04/26 07:14:00;;;;;;;4.47;2.00;;;;;;;27.43;10.82;100844.41;1682278;82;21356;-67
2021/04/26 07:16:33;;;;;;;2.42;1.52;;;;;;;27.75;11.14;100834.97;1673871;83;21312;-68
2021/04/26 07:19:06;;;;;;;2.02;1.10;;;;;;;28.23;10.69;100835.51;1682247;84;21385;-68
2021/04/26 07:21:39;;;;;;;;;;;;;;;28.62;10.54;100845.51;1672147;84;21291;-66
2021/04/26 07:24:12;;;;;;;3.72;1.85;;;;;;;28.58;10.13;100833.55;1681800;83;20298;-70
2021/04/26 07:26:45;;;;;;;1.62;1.30;;;;;;;28.16;10.39;100826.74;1691932;83;21837;-64
2021/04/26 07:29:18;;;;;;;3.08;1.77;;;;;;;27.82;10.63;100821.66;1687295;82;21333;-62
2021/04/26 07:31:51;;;;;;;2.75;1.10;;;;;;;27.74;10.78;100826.59;1680795;83;21331;-67
2021/04/26 07:34:24;;;;;;;1.32;0.93;;;;;;;28.23;10.56;100823.94;1668542;82;21199;-65
2021/04/26 07:36:59;;;;;;;3.17;1.07;;;;;;;28.69;10.24;100817.06;1679913;83;21130;-71
2021/04/26 07:39:35;;;;;;;1.20;1.10;;;;;;;28.94;10.07;100816.72;1688252;83;21214;-71
2021/04/26 07:42:09;;;;;;;4.25;3.85;;;;;;;29.24;9.93;100805.95;1673511;83;21270;-72
2021/04/26 07:44:42;;;;;;;2.95;1.80;;;;;;;29.65;9.72;100814.67;1667811;83;21324;-73
2021/04/26 07:47:15;;;;;;;1.70;1.40;;;;;;;29.70;9.62;100811.53;1683511;82;21241;-66
2021/04/26 07:49:48;;;;;;;;;;;;;;;29.40;9.50;100805.65;1689553;83;21355;-70
2021/04/26 07:52:22;;;;;;;7.65;1.80;;;;;;;28.98;9.81;100803.04;1672876;82;20204;-68
2021/04/26 07:54:56;;;;;;;1.95;1.22;;;;;;;28.89;10.20;100805.84;1689913;82;21150;-65
2021/04/26 07:57:31;;;;;;;2.90;1.35;;;;;;;29.16;9.91;100784.75;1687664;83;21433;-71
2021/04/26 08:00:06;;;;;;;1.52;1.10;;;;;;;29.40;10.04;100780.03;1683232;82;21938;-69
2021/04/26 08:02:39;;;;;;;2.65;1.40;;;;;;;29.59;9.89;100796.23;1686616;82;21783;-64
2021/04/26 08:05:15;;;;;;;2.83;1.50;;;;;;;29.35;9.84;100771.33;1684014;83;21330;-66
2021/04/26 08:07:48;;;;;;;2.87;1.20;;;;;;;29.20;9.96;100769.77;1666612;83;21335;-66
2021/04/26 08:10:21;;;;;;;6.28;1.60;;;;;;;29.31;10.02;100770.72;1674766;83;21292;-63
2021/04/26 08:12:54;;;;;;;4.83;1.80;;;;;;;29.14;9.96;100776.09;1689452;83;21422;-64
2021/04/26 08:15:27;;;;;;;2.52;1.60;;;;;;;28.87;10.27;100790.45;1688750;82;22616;-66
2021/04/26 08:18:00;;;;;;;1.95;1.30;;;;;;;28.28;10.27;100785.80;1681028;83;21957;-64
2021/04/26 08:20:35;;;;;;;2.50;1.62;;;;;;;27.78;10.62;100773.42;1671638;83;21294;-69
2021/04/26 08:23:09;;;;;;;6.08;4.75;;;;;;;27.84;11.09;100763.08;1684704;83;22011;-69
2021/04/26 08:25:58;;;;;;;2.62;1.60;;;;;;;27.41;11.32;100763.98;1691582;82;21252;-68
2021/04/26 08:28:35;;;;;;;11.15;8.78;;;;;;;26.37;11.43;100764.98;1691077;83;21282;-65
2021/04/26 08:31:08;;;;;;;3.17;2.10;;;;;;;25.41;11.94;100763.45;1685079;82;22685;-64
2021/04/26 08:33:42;;;;;;;3.58;1.80;;;;;;;24.53;12.69;100760.44;1687032;83;21338;-68
2021/04/26 08:36:15;;;;;;;3.40;2.10;;;;;;;23.72;13.34;100753.94;1682411;82;21331;-69
2021/04/26 08:38:51;;;;;;;4.28;2.60;;;;;;;23.72;13.59;100756.61;1669003;84;21374;-66
2021/04/26 08:41:25;;;;;;;2.83;2.30;;;;;;;24.08;14.07;100751.60;1669906;83;21381;-67
2021/04/26 08:43:58;;;;;;;2.92;2.20;;;;;;;24.61;13.55;100747.64;1686937;83;21322;-67
2021/04/26 08:46:31;;;;;;;4.25;1.98;;;;;;;25.01;12.93;100733.98;1692206;82;21335;-66
2021/04/26 08:49:07;;;;;;;5.42;1.80;;;;;;;24.94;13.11;100724.67;1679579;82;21225;-66
2021/04/26 08:51:43;;;;;;;2.72;2.00;;;;;;;24.39;13.43;100731.59;1668006;82;21334;-65
2021/04/26 08:54:18;;;;;;;6.40;2.30;;;;;;;23.42;13.82;100730.38;1695940;82;21230;-68
2021/04/26 08:56:51;;;;;;;3.00;1.75;;;;;;;22.25;14.98;100724.86;1689872;82;21288;-67
2021/04/26 08:59:24;;;;;;;4.33;1.87;;;;;;;21.30;15.81;100724.21;1647457;84;21352;-70
2021/04/26 09:02:05;;;;;;;5.58;1.85;;;;;;;20.74;16.38;100727.81;1661492;83;21355;-65
2021/04/26 09:04:53;;;;;;;2.50;1.82;;;;;;;20.57;16.87;100717.09;1685270;83;21290;-67
2021/04/26 09:07:26;;;;;;;4.80;2.10;;;;;;;21.05;16.85;100715.02;1659165;83;21303;-72
2021/04/26 09:09:59;;;;;;;4.72;1.98;;;;;;;21.79;16.42;100712.13;1690674;82;21766;-69
2021/04/26 09:12:34;;;;;;;4.08;2.08;;;;;;;22.43;15.64;100727.77;1675359;83;21347;-69
2021/04/26 09:15:08;;;;;;;4.83;2.22;;;;;;;22.61;15.26;100713.39;1660802;84;21623;-69
2021/04/26 09:17:44;;;;;;;3.47;2.35;;;;;;;22.42;15.57;100713.63;1651739;85;21478;-69
2021/04/26 09:20:23;;;;;;;3.42;2.22;;;;;;;22.38;15.79;100715.58;1687871;83;21305;-70
2021/04/26 09:23:01;;;;;;;4.60;2.58;;;;;;;22.46;16.05;100710.86;1694053;82;21766;-65
2021/04/26 09:25:41;;;;;;;3.12;2.33;;;;;;;21.93;16.39;100699.70;1695624;82;21287;-64
2021/04/26 09:28:20;;;;;;;3.65;2.20;;;;;;;21.41;16.45;100706.38;1686353;84;21345;-67
2021/04/26 09:31:00;;;;;;;5.05;2.50;;;;;;;21.45;16.76;100700.14;1693585;82;21327;-64
2021/04/26 09:33:39;;;;;;;4.58;2.60;;;;;;;21.28;16.92;100699.62;1689900;82;22053;-67
2021/04/26 09:36:23;;;;;;;12.10;2.70;;;;;;;21.03;17.33;100692.23;1665403;84;21331;-65
2021/04/26 09:38:56;;;;;;;5.53;2.87;;;;;;;20.73;17.47;100696.88;1692475;82;21772;-64
2021/04/26 09:41:36;;;;;;;5.75;2.60;;;;;;;20.39;17.44;100689.62;1680787;82;21914;-66
2021/04/26 09:44:11;;;;;;;9.83;5.12;;;;;;;19.98;17.50;100688.50;1694167;82;21323;-67
2021/04/26 09:46:52;;;;;;;7.75;2.67;;;;;;;19.47;18.34;100691.10;1680510;83;21318;-69
2021/04/26 09:49:27;;;;;;;7.20;2.55;;;;;;;19.14;18.51;100676.48;1686477;82;21842;-72
2021/04/26 09:52:05;;;;;;;8.15;3.27;;;;;;;18.89;18.83;100686.19;1693152;82;21868;-71
2021/04/26 09:54:43;;;;;;;5.90;2.58;;;;;;;18.59;19.57;100668.85;1665835;83;21342;-67
2021/04/26 09:57:17;;;;;;;4.90;2.15;;;;;;;18.43;20.34;100685.34;1677330;83;22385;-69
2021/04/26 09:59:50;;;;;;;5.20;2.27;;;;;;;18.06;20.14;100675.45;1684750;82;21308;-65
2021/04/26 10:02:25;;;;;;;4.78;2.00;;;;;;;17.81;20.39;100664.18;1672465;82;21335;-61
2021/04/26 10:04:59;;;;;;;4.28;2.05;;;;;;;17.64;20.87;100669.21;1671412;83;22468;-68
2021/04/26 10:07:32;;;;;;;5.62;2.47;;;;;;;17.66;20.69;100667.70;1678156;82;21304;-69
2021/04/26 10:10:10;;;;;;;5.53;2.40;;;;;;;17.66;20.75;100654.47;1654497;83;21337;-65
2021/04/26 10:12:45;;;;;;;4.80;2.50;;;;;;;17.57;20.58;100648.88;1696397;83;21342;-61
2021/04/26 10:15:26;;;;;;;4.90;2.42;;;;;;;17.47;21.58;100647.73;1683624;82;21307;-62
2021/04/26 10:18:00;;;;;;;2.60;1.60;;;;;;;17.53;21.29;100645.73;1670735;82;21360;-67
2021/04/26 10:20:41;;;;;;;2.72;1.70;;;;;;;17.58;21.51;100654.52;1695392;82;21335;-64
2021/04/26 10:23:39;;;;;;;6.53;1.90;;;;;;;17.39;21.61;100658.33;1678603;83;21371;-66
2021/04/26 10:26:47;;;;;;;6.80;1.70;;;;;;;17.16;21.84;100652.95;1682677;82;21295;-66
2021/04/26 10:29:30;;;;;;;4.70;1.82;;;;;;;16.99;22.25;100663.22;1693450;83;21423;-66
2021/04/26 10:32:12;;;;;;;5.35;1.75;;;;;;;16.77;22.41;100659.92;1677220;82;21186;-69
2021/04/26 10:34:56;;;;;;;4.55;1.87;;;;;;;16.51;22.78;100646.87;1688000;83;22525;-68
2021/04/26 10:37:30;;;;;;;6.80;2.00;;;;;;;16.33;22.90;100639.58;1684492;83;21854;-68
2021/04/26 10:40:14;;;;;;;2.70;1.57;;;;;;;16.26;23.23;100637.26;1687161;82;21332;-67
2021/04/26 10:42:53;;;;;;;4.03;1.20;;;;;;;16.24;23.21;100631.28;1679004;82;21896;-63
2021/04/26 10:45:30;;;;;;;4.50;1.35;;;;;;;16.18;23.26;100634.59;1691903;83;21368;-62
2021/04/26 10:48:10;;;;;;;3.08;1.50;;;;;;;16.05;23.24;100626.30;1684796;82;21882;-65
2021/04/26 10:50:47;;;;;;;5.53;2.17;;;;;;;15.94;23.61;100616.05;1676647;83;21253;-67
2021/04/26 10:53:22;;;;;;;2.72;1.62;;;;;;;15.93;23.63;100621.02;1661296;84;21351;-71
2021/04/26 10:55:59;;;;;;;3.70;1.77;;;;;;;15.90;23.66;100616.89;1670969;83;21223;-67
2021/04/26 10:58:36;;;;;;;9.43;1.72;;;;;;;15.92;23.59;100616.72;1681961;82;21208;-68
2021/04/26 11:01:18;;;;;;;3.00;1.60;;;;;;;16.01;24.10;100616.57;1696188;82;21711;-65
2021/04/26 11:03:47;;;;;;;3.95;2.40;;;;;;;16.10;23.41;100612.95;1693422;83;21385;-66
2021/04/26 11:06:26;;;;;;;5.53;1.80;;;;;;;16.18;23.44;100618.75;1686803;82;21339;-65
2021/04/26 11:09:07;;;;;;;3.10;1.40;;;;;;;16.34;23.11;100610.83;1680265;83;21324;-66
2021/04/26 11:11:39;;;;;;;4.10;1.45;;;;;;;16.41;23.18;100610.98;1681187;82;21292;-66
2021/04/26 11:14:14;;;;;;;21.27;2.20;;;;;;;16.47;23.10;100609.02;1674182;83;21474;-65
2021/04/26 11:17:05;;;;;;;5.28;1.57;;;;;;;16.44;23.38;100610.17;1662333;84;22252;-65
2021/04/26 11:19:59;;;;;;;2.02;1.30;;;;;;;16.46;23.42;100609.52;1651628;84;21793;-65
2021/04/26 11:22:35;;;;;;;;;;;;;;;16.57;23.04;100611.04;1686751;83;21343;-65
2021/04/26 11:25:10;;;;;;;3.40;1.50;;;;;;;16.55;22.67;100601.13;1671523;83;20289;-62
2021/04/26 11:27:50;;;;;;;3.33;1.82;;;;;;;16.44;22.85;100595.64;1680601;82;21656;-69
2021/04/26 11:30:29;;;;;;;4.20;1.55;;;;;;;16.46;22.83;100600.75;1679395;82;21287;-65
2021/04/26 11:33:19;;;;;;;2.90;1.50;;;;;;;16.52;23.53;100591.72;1689468;82;21302;-66
2021/04/26 11:36:16;;;;;;;4.87;1.40;;;;;;;16.71;23.39;100583.44;1697911;82;21280;-66
2021/04/26 11:38:51;;;;;;;5.33;1.42;;;;;;;16.80;23.29;100594.33;1692694;83;21443;-64
2021/04/26 11:41:25;;;;;;;2.58;1.05;;;;;;;16.82;23.25;100580.44;1681057;83;21318;-62
2021/04/26 11:43:58;;;;;;;2.45;1.25;;;;;;;16.81;23.12;100578.77;1685539;82;22309;-64
2021/04/26 11:46:33;;;;;;;4.17;1.10;;;;;;;16.72;22.96;100577.62;1681040;82;21840;-63
2021/04/26 11:49:21;;;;;;;3.77;1.90;;;;;;;16.59;23.13;100571.56;1691385;82;21311;-70
2021/04/26 11:51:55;;;;;;;3.98;1.65;;;;;;;16.44;23.23;100585.56;1685222;82;21838;-69
2021/04/26 11:54:29;;;;;;;1.62;1.02;;;;;;;16.28;23.53;100566.59;1675522;82;21367;-64
2021/04/26 11:57:04;;;;;;;;;;;;;;;16.36;23.84;100551.23;1670788;83;21327;-66
2021/04/26 11:59:38;;;;;;;8.70;2.30;;;;;;;16.51;24.50;100569.37;1675266;83;20336;-64
2021/04/26 12:02:12;;;;;;;4.40;1.55;;;;;;;16.51;24.80;100563.63;1667034;84;21339;-62
2021/04/26 12:04:46;;;;;;;4.35;2.17;;;;;;;16.48;24.45;100557.31;1682867;83;21209;-64
2021/04/26 12:07:19;;;;;;;9.95;2.00;;;;;;;16.37;25.06;100560.79;1688913;83;21289;-64
2021/04/26 12:10:13;;;;;;;4.55;1.77;;;;;;;16.38;25.13;100558.49;1699412;83;21363;-68
2021/04/26 12:12:47;;;;;;;2.00;1.32;;;;;;;16.39;25.21;100553.52;1686298;83;21320;-68
2021/04/26 12:18:00;;;;;;;4.95;1.85;;;;;;;16.39;24.22;100535.86;1669799;84;21288;-65